Airfield :
LOGIN :

Register | Disclaimer

   EN    FR    IT 

 










Legend :    VFR   Marginal VFR   IFR   Intensive IFR   Very Intensive IFR
Visi :
Ceiling :
>= 8 km
>= 3000ft
5 to 8 km
1000 to 3000 ft
1500m to 5 km
500 to 1000 ft
800 to 1500m
200 to 500 ft
< 800m
< 200 ft
Symbols :   Thunderstorms  Fog  Heavy snow  Heavy precipitations  Wind > 20 kt
SIGMETs :     Misc.  Thunderstorms  Icing  Turbulence  Mountain Waves  Volcanic Ashes






- Airport Elevation : 1649 ft
- IATA code : HHN


EDFH - Frankfurt-Hahn Rhineland-Palatinate

CURRENT METAR :
  • 281550Z 14011KT 0100 R21/0250N FG VV/// 01/01 Q1018

EXPIRED METARs :
  • 281520Z 13010G21KT 0050 R21/0200N FG NSC 01/01 Q1018
  • 281450Z 13009KT 0100 R21/0175N FG NSC 01/01 Q1018
  • 281420Z 13010KT 0100 R21/0150N FG NSC 01/01 Q1018
  • 281350Z 14011KT 0150 R21/0200N FG VV/// 01/01 Q1018
  • 281320Z 14010KT 0200 R21/0275D FG VV/// 01/01 Q1018

TAF AMD TAF EDFH
Valid from the 28 at 16:00 until the 29 at 12:00 UTC


281606Z 2816/2912 11010KT 0200 FG BKN001
TEMPO 2816/2818 2000 BCFG BKN003
BECMG 2911/2912 4000 BR SCT005



MET'MAP, your aeronautical weather chart ! - Copyright ORBIFLY December 2007 - Disclaimer

ORBIFLY MET'MAP TEAM :

Programming & Development : Alexandra Zaïnal
Concept & original design : Baudouin d'Aumeries
Assistance for programming : Marc-Olivier Méhu
Technical & hardware support : Manuel Goepfert

Contact : metmap@orbifly.com




SOURCES & CREDITS :

   NOAA